Time;durP1;ratioP1;P1;durP2;ratioP2;P2;SDS_P1;SDS_P2;PMS_P1;PMS_P2;Temp;Humidity;BMP_temperature;BMP_pressure;BME280_temperature;BME280_humidity;BME280_pressure;Samples;Min_cycle;Max_cycle;Signal;HPM_P1;HPM_P2
2021/01/20 00:00:46;;;;;;;11.57;3.72;;;7.10;99.90;;;;;;4971908;28;20226;-76
2021/01/20 00:03:12;;;;;;;5.50;3.70;;;7.10;99.90;;;;;;4940615;29;20267;-76
2021/01/20 00:05:38;;;;;;;7.63;4.20;;;7.10;99.90;;;;;;4956470;29;20415;-76
2021/01/20 00:08:05;;;;;;;5.13;3.43;;;7.10;99.90;;;;;;4957282;28;20698;-76
2021/01/20 00:10:31;;;;;;;13.32;4.43;;;7.10;99.90;;;;;;4957737;29;20463;-76
2021/01/20 00:12:57;;;;;;;4.47;4.03;;;7.10;99.90;;;;;;4956298;29;20654;-76
2021/01/20 00:15:25;;;;;;;5.70;3.47;;;7.10;99.90;;;;;;4956279;29;20455;-76
2021/01/20 00:17:51;;;;;;;5.65;4.30;;;7.00;99.90;;;;;;4956003;29;20584;-76
2021/01/20 00:20:18;;;;;;;7.88;3.83;;;7.00;99.90;;;;;;4950772;28;20224;-76
2021/01/20 00:22:46;;;;;;;5.05;3.85;;;6.90;99.90;;;;;;4921298;29;20172;-76
2021/01/20 00:25:13;;;;;;;6.15;4.05;;;7.00;99.90;;;;;;4936849;29;20185;-77
2021/01/20 00:27:39;;;;;;;12.20;3.90;;;6.90;99.90;;;;;;4951402;28;20242;-76
2021/01/20 00:30:07;;;;;;;6.10;4.35;;;6.90;99.90;;;;;;4972994;28;20183;-76
2021/01/20 00:32:33;;;;;;;7.30;3.50;;;6.90;99.90;;;;;;4975220;28;20577;-76
2021/01/20 00:35:00;;;;;;;7.30;3.75;;;6.90;99.90;;;;;;4975051;28;20234;-76
2021/01/20 00:37:25;;;;;;;7.65;4.10;;;6.90;99.90;;;;;;4974870;28;20599;-76
2021/01/20 00:39:51;;;;;;;7.17;3.80;;;6.90;99.90;;;;;;4975026;28;20179;-76
2021/01/20 00:42:17;;;;;;;6.70;4.50;;;6.90;99.90;;;;;;4958935;28;20407;-76
2021/01/20 00:44:43;;;;;;;7.17;4.20;;;6.80;99.90;;;;;;4974888;28;20776;-76
2021/01/20 00:47:09;;;;;;;7.65;4.28;;;6.80;99.90;;;;;;4974706;28;20430;-76
2021/01/20 00:49:36;;;;;;;5.15;4.30;;;6.80;99.90;;;;;;4974993;28;20215;-76
2021/01/20 00:52:02;;;;;;;8.52;3.90;;;6.80;99.90;;;;;;4991004;28;20203;-76
2021/01/20 00:54:28;;;;;;;6.05;3.92;;;6.80;99.90;;;;;;4958986;28;20666;-77
2021/01/20 00:56:54;;;;;;;8.25;4.28;;;6.80;99.90;;;;;;4975299;28;20667;-76
2021/01/20 00:59:22;;;;;;;8.18;4.50;;;6.70;99.90;;;;;;4958927;28;20667;-76
2021/01/20 01:01:48;;;;;;;6.78;4.35;;;6.60;99.90;;;;;;4958404;28;20171;-76
2021/01/20 01:04:26;;;;;;;6.85;4.55;;;6.70;99.90;;;;;;4955301;29;20191;-76
2021/01/20 01:06:53;;;;;;;7.10;4.20;;;6.70;99.90;;;;;;4971215;28;20191;-76
2021/01/20 01:09:19;;;;;;;9.77;4.47;;;6.70;99.90;;;;;;4956254;28;20285;-76
2021/01/20 01:11:46;;;;;;;4.78;3.80;;;6.70;99.90;;;;;;4955144;29;20184;-76
2021/01/20 01:14:12;;;;;;;6.85;4.18;;;6.70;99.90;;;;;;4954889;29;20246;-76
2021/01/20 01:17:04;;;;;;;5.28;3.88;;;6.70;99.90;;;;;;4954129;28;20270;-76
2021/01/20 01:19:42;;;;;;;6.20;4.10;;;6.80;99.90;;;;;;4954893;29;20215;-76
2021/01/20 01:22:12;;;;;;;5.80;4.10;;;6.80;99.90;;;;;;4955160;29;20653;-76
2021/01/20 01:24:40;;;;;;;5.38;4.57;;;6.90;99.90;;;;;;4956083;29;20172;-76
2021/01/20 01:27:07;;;;;;;5.60;3.97;;;6.90;99.90;;;;;;4964856;28;20230;-77
2021/01/20 01:29:34;;;;;;;7.50;5.10;;;6.90;99.90;;;;;;4974013;28;20624;-76
2021/01/20 01:32:06;;;;;;;10.05;4.70;;;7.00;99.90;;;;;;4971523;28;20214;-76
2021/01/20 01:34:33;;;;;;;9.25;4.57;;;7.00;99.90;;;;;;4970636;28;20210;-76
2021/01/20 01:37:03;;;;;;;4.78;4.00;;;7.00;99.90;;;;;;4937761;28;20231;-76
2021/01/20 01:39:48;;;;;;;6.57;4.30;;;7.00;99.90;;;;;;4936518;29;20204;-76
2021/01/20 01:42:14;;;;;;;11.00;5.47;;;7.00;99.90;;;;;;4935756;29;20544;-76
2021/01/20 01:44:41;;;;;;;9.07;5.15;;;7.10;99.90;;;;;;4951188;29;20251;-76
2021/01/20 01:47:12;;;;;;;5.72;4.57;;;7.10;99.90;;;;;;4951236;29;20181;-76
2021/01/20 01:49:47;;;;;;;7.05;4.70;;;7.10;99.90;;;;;;4935450;29;20208;-76
2021/01/20 01:52:16;;;;;;;7.20;4.78;;;7.20;99.90;;;;;;4935455;29;20639;-76
2021/01/20 01:55:00;;;;;;;6.32;4.45;;;7.30;99.90;;;;;;4936619;29;20212;-76
2021/01/20 01:57:54;;;;;;;4.82;3.80;;;7.30;99.90;;;;;;4940832;29;20203;-76
2021/01/20 02:00:22;;;;;;;5.35;4.43;;;7.30;99.90;;;;;;4954137;29;20226;-76
2021/01/20 02:02:59;;;;;;;6.40;4.28;;;7.30;99.90;;;;;;4939706;29;20653;-76
2021/01/20 02:05:28;;;;;;;4.28;3.88;;;7.30;99.90;;;;;;4938489;29;20218;-76
2021/01/20 02:07:56;;;;;;;4.82;4.00;;;7.30;99.90;;;;;;4938278;29;20207;-76
2021/01/20 02:10:28;;;;;;;5.93;4.18;;;7.40;99.90;;;;;;4938392;29;20266;-76
2021/01/20 02:13:28;;;;;;;3.97;3.47;;;7.30;99.90;;;;;;4938322;29;20222;-76
2021/01/20 02:16:25;;;;;;;4.88;3.78;;;7.30;99.90;;;;;;4954248;29;20204;-76
2021/01/20 02:18:58;;;;;;;3.75;3.40;;;7.40;99.90;;;;;;4938941;29;20708;-76
2021/01/20 02:21:34;;;;;;;6.38;4.03;;;7.30;99.90;;;;;;4954095;29;20258;-76
2021/01/20 02:24:35;;;;;;;4.15;3.10;;;7.30;99.90;;;;;;4954999;28;20218;-76
2021/01/20 02:27:44;;;;;;;8.80;3.92;;;7.30;99.90;;;;;;4953773;29;20258;-76
2021/01/20 02:30:16;;;;;;;5.43;3.78;;;7.20;99.90;;;;;;4953912;28;20195;-76
2021/01/20 02:32:54;;;;;;;3.58;3.28;;;7.30;99.90;;;;;;4953977;29;20198;-76
2021/01/20 02:35:39;;;;;;;5.03;4.30;;;7.20;99.90;;;;;;4939679;29;20239;-76
2021/01/20 02:38:06;;;;;;;8.10;4.30;;;7.30;99.90;;;;;;4921880;29;20223;-76
2021/01/20 02:40:42;;;;;;;7.75;3.70;;;7.30;99.90;;;;;;4923513;29;20208;-76
2021/01/20 02:43:43;;;;;;;5.32;3.45;;;7.30;99.90;;;;;;4965391;28;20192;-76
2021/01/20 02:46:24;;;;;;;5.30;3.80;;;7.20;99.90;;;;;;4960258;29;20266;-76
2021/01/20 02:48:52;;;;;;;5.28;4.57;;;7.20;99.90;;;;;;4944294;29;20685;-76
2021/01/20 02:51:33;;;;;;;6.57;4.50;;;7.30;99.90;;;;;;4944196;29;20171;-76
2021/01/20 02:54:33;;;;;;;4.70;3.80;;;7.30;99.90;;;;;;4949371;28;20233;-76
2021/01/20 02:57:19;;;;;;;7.40;4.00;;;7.30;99.90;;;;;;4960121;28;20184;-76
2021/01/20 02:59:56;;;;;;;4.15;3.80;;;7.30;99.90;;;;;;4961438;28;20183;-76
2021/01/20 03:02:42;;;;;;;5.35;4.05;;;7.40;99.90;;;;;;4946415;29;20231;-76
2021/01/20 03:05:10;;;;;;;5.93;3.80;;;7.30;99.90;;;;;;4960010;28;20180;-76
2021/01/20 03:07:38;;;;;;;5.13;4.28;;;7.30;99.90;;;;;;4961009;28;20183;-76
2021/01/20 03:10:10;;;;;;;6.10;3.72;;;7.20;99.90;;;;;;4961105;28;20179;-76
2021/01/20 03:12:39;;;;;;;4.47;4.07;;;7.10;99.90;;;;;;4960913;28;20232;-76
2021/01/20 03:15:12;;;;;;;5.40;4.85;;;7.10;99.90;;;;;;4960887;28;20200;-76
2021/01/20 03:17:38;;;;;;;4.15;3.45;;;7.10;99.90;;;;;;4961245;28;20540;-76
2021/01/20 03:20:05;;;;;;;5.10;3.80;;;7.20;99.90;;;;;;4975896;28;20168;-76
2021/01/20 03:22:31;;;;;;;7.18;3.90;;;7.10;99.90;;;;;;4960963;28;20482;-76
2021/01/20 03:24:57;;;;;;;4.30;3.60;;;7.20;99.90;;;;;;4960774;28;20580;-76
2021/01/20 03:27:22;;;;;;;8.83;4.00;;;7.20;99.90;;;;;;4943860;28;20430;-76
2021/01/20 03:29:49;;;;;;;4.83;4.20;;;7.20;99.90;;;;;;4960849;28;20465;-76
2021/01/20 03:32:17;;;;;;;8.52;4.45;;;7.20;99.90;;;;;;4943886;29;20482;-76
2021/01/20 03:34:43;;;;;;;4.53;4.13;;;7.20;99.90;;;;;;4960799;29;20304;-76
2021/01/20 03:37:09;;;;;;;5.60;4.40;;;7.20;99.90;;;;;;4960751;29;20635;-76
2021/01/20 03:39:34;;;;;;;5.10;3.93;;;7.20;99.90;;;;;;4960752;28;20348;-76
2021/01/20 03:42:00;;;;;;;4.60;3.80;;;7.30;99.90;;;;;;4959874;28;20782;-76
2021/01/20 03:44:26;;;;;;;4.75;3.67;;;7.30;99.90;;;;;;4961103;28;20969;-76
2021/01/20 03:46:55;;;;;;;6.30;4.07;;;7.30;99.90;;;;;;4960787;28;20267;-76
2021/01/20 03:49:23;;;;;;;7.07;4.53;;;7.40;99.90;;;;;;4960662;28;20443;-76
2021/01/20 03:51:49;;;;;;;4.50;4.10;;;7.40;99.90;;;;;;4959394;29;20191;-76
2021/01/20 03:54:15;;;;;;;12.48;5.50;;;7.30;99.90;;;;;;4957222;28;20196;-76
2021/01/20 03:56:41;;;;;;;5.30;4.05;;;7.30;99.90;;;;;;4955942;29;20219;-76
2021/01/20 03:59:07;;;;;;;5.43;4.25;;;7.20;99.90;;;;;;4964599;28;20207;-77
2021/01/20 04:01:33;;;;;;;5.78;4.47;;;7.20;99.90;;;;;;4975888;28;20270;-76
2021/01/20 04:04:00;;;;;;;5.78;3.92;;;7.10;99.90;;;;;;4959712;28;20261;-76
2021/01/20 04:06:32;;;;;;;6.82;4.45;;;7.20;99.90;;;;;;4976743;28;20282;-76
2021/01/20 04:08:58;;;;;;;4.85;4.20;;;7.20;99.90;;;;;;4959385;28;20215;-77
2021/01/20 04:11:24;;;;;;;6.03;4.63;;;7.20;99.90;;;;;;4960040;28;20184;-77
2021/01/20 04:13:50;;;;;;;8.52;4.60;;;7.10;99.90;;;;;;4921101;29;20523;-77
2021/01/20 04:16:19;;;;;;;6.60;5.03;;;7.20;99.90;;;;;;4936949;29;20188;-76
2021/01/20 04:18:47;;;;;;;5.32;4.38;;;7.20;99.90;;;;;;4936864;29;20260;-76
2021/01/20 04:21:14;;;;;;;6.25;4.20;;;7.20;99.90;;;;;;4943868;29;20642;-76
2021/01/20 04:23:43;;;;;;;4.32;3.80;;;7.20;99.90;;;;;;4955774;29;20192;-77
2021/01/20 04:26:09;;;;;;;5.20;4.70;;;7.20;99.90;;;;;;4939494;29;20561;-76
2021/01/20 04:28:36;;;;;;;4.88;4.00;;;7.20;99.90;;;;;;4955598;29;20502;-76
2021/01/20 04:31:05;;;;;;;5.20;4.70;;;7.20;99.90;;;;;;4955696;29;20183;-76
2021/01/20 04:33:31;;;;;;;5.38;3.80;;;7.30;99.90;;;;;;4955626;28;20192;-77
2021/01/20 04:35:57;;;;;;;5.60;4.65;;;7.30;99.90;;;;;;4955383;29;20224;-77
2021/01/20 04:38:24;;;;;;;4.25;3.80;;;7.40;99.90;;;;;;4971849;28;20212;-76
2021/01/20 04:40:57;;;;;;;8.38;4.60;;;7.40;99.90;;;;;;4956627;28;20552;-76
2021/01/20 04:43:24;;;;;;;7.28;5.32;;;7.40;99.90;;;;;;4956992;28;20656;-76
2021/01/20 04:45:52;;;;;;;6.45;4.82;;;7.40;99.90;;;;;;4939865;29;20650;-77
2021/01/20 04:48:20;;;;;;;9.95;4.07;;;7.40;99.90;;;;;;4937273;29;20231;-76
2021/01/20 04:50:51;;;;;;;5.75;4.10;;;7.40;99.90;;;;;;4936371;29;20708;-76
2021/01/20 04:53:19;;;;;;;5.18;4.78;;;7.40;99.90;;;;;;4937580;28;20181;-76
2021/01/20 04:55:47;;;;;;;6.32;4.43;;;7.50;99.90;;;;;;4955237;28;20609;-77
2021/01/20 04:58:13;;;;;;;5.30;4.80;;;7.50;99.90;;;;;;4939111;29;20208;-76
2021/01/20 05:00:41;;;;;;;6.38;4.90;;;7.50;99.90;;;;;;4955519;28;20443;-77
2021/01/20 05:03:09;;;;;;;5.13;4.30;;;7.50;99.90;;;;;;4947265;28;20211;-76
2021/01/20 05:05:36;;;;;;;5.75;5.25;;;7.50;99.90;;;;;;4954549;28;20211;-76
2021/01/20 05:08:05;;;;;;;5.75;4.43;;;7.40;99.90;;;;;;4955258;29;20709;-77
2021/01/20 05:10:35;;;;;;;11.15;6.07;;;7.40;99.90;;;;;;4939477;29;20187;-76
2021/01/20 05:13:04;;;;;;;4.95;4.55;;;7.40;99.90;;;;;;4955957;28;20188;-76
2021/01/20 05:15:32;;;;;;;5.60;5.10;;;7.40;99.90;;;;;;4956003;28;20262;-75
2021/01/20 05:18:06;;;;;;;5.65;5.15;;;7.50;99.90;;;;;;4939030;29;20228;-76
2021/01/20 05:20:34;;;;;;;4.80;4.40;;;7.40;99.90;;;;;;4971133;28;20203;-76
2021/01/20 05:23:07;;;;;;;7.00;5.43;;;7.40;99.90;;;;;;4935770;29;20191;-75
2021/01/20 05:25:39;;;;;;;6.25;5.75;;;7.40;99.90;;;;;;4935536;28;20193;-77
2021/01/20 05:28:18;;;;;;;6.00;5.10;;;7.40;99.90;;;;;;4975406;28;20733;-76
2021/01/20 05:30:49;;;;;;;6.20;5.35;;;7.40;99.90;;;;;;4954163;28;20559;-77
2021/01/20 05:33:18;;;;;;;7.05;4.88;;;7.30;99.90;;;;;;4951134;29;20191;-76
2021/01/20 05:35:45;;;;;;;5.57;5.05;;;7.30;99.90;;;;;;4950710;29;20238;-77
2021/01/20 05:38:11;;;;;;;5.30;4.80;;;7.30;99.90;;;;;;4935125;29;20287;-78
2021/01/20 05:40:38;;;;;;;5.53;4.93;;;7.30;99.90;;;;;;4950282;29;20190;-78
2021/01/20 05:43:04;;;;;;;5.95;5.13;;;7.30;99.90;;;;;;4954631;28;20686;-78
2021/01/20 05:45:33;;;;;;;6.50;5.88;;;7.20;99.90;;;;;;4954176;28;20192;-78
2021/01/20 05:48:04;;;;;;;6.30;5.10;;;7.30;99.90;;;;;;4970081;28;20837;-77
2021/01/20 05:50:31;;;;;;;8.23;5.55;;;7.30;99.90;;;;;;4955571;29;20183;-77
2021/01/20 05:53:04;;;;;;;5.30;4.90;;;7.30;99.90;;;;;;4970682;28;20796;-78
2021/01/20 05:55:33;;;;;;;6.35;5.50;;;7.40;99.90;;;;;;4931855;29;21135;-78
2021/01/20 05:57:59;;;;;;;5.85;5.35;;;7.50;99.90;;;;;;4946900;28;20208;-78
2021/01/20 06:00:25;;;;;;;5.32;4.90;;;7.50;99.90;;;;;;4936111;29;20723;-78
2021/01/20 06:02:58;;;;;;;6.45;5.78;;;7.60;99.90;;;;;;4952643;28;20187;-78
2021/01/20 06:05:28;;;;;;;8.65;6.43;;;7.70;99.90;;;;;;4952599;29;20688;-78
2021/01/20 06:07:56;;;;;;;6.35;5.85;;;7.70;99.90;;;;;;4955471;28;20286;-78
2021/01/20 06:10:23;;;;;;;6.97;6.32;;;7.70;99.90;;;;;;4940749;29;20212;-78
2021/01/20 06:12:51;;;;;;;5.95;5.40;;;7.80;99.90;;;;;;4934929;29;20189;-78
2021/01/20 06:15:20;;;;;;;5.57;5.00;;;7.80;99.90;;;;;;4935808;29;20244;-78
2021/01/20 06:17:50;;;;;;;6.40;5.90;;;7.80;99.90;;;;;;4918149;29;20208;-78
2021/01/20 06:20:23;;;;;;;7.03;6.32;;;7.80;99.90;;;;;;4934868;29;20245;-77
2021/01/20 06:22:52;;;;;;;7.75;6.95;;;7.90;99.90;;;;;;4918722;29;20276;-79
2021/01/20 06:25:32;;;;;;;6.50;5.90;;;7.90;99.90;;;;;;4934802;29;20188;-77
2021/01/20 06:28:07;;;;;;;6.03;5.43;;;7.90;99.90;;;;;;4933898;29;20685;-78
2021/01/20 06:30:40;;;;;;;6.20;5.65;;;7.90;99.90;;;;;;4943106;29;20212;-78
2021/01/20 06:33:09;;;;;;;5.95;5.55;;;7.90;99.90;;;;;;4956729;28;20222;-78
2021/01/20 06:35:43;;;;;;;5.47;4.97;;;7.90;99.90;;;;;;4972964;28;20240;-78
2021/01/20 06:38:28;;;;;;;6.10;5.60;;;7.90;99.90;;;;;;4972891;28;20246;-78
2021/01/20 06:41:09;;;;;;;5.90;5.20;;;7.90;99.90;;;;;;4957063;28;20182;-78
2021/01/20 06:43:36;;;;;;;5.95;5.20;;;7.90;99.90;;;;;;4948255;28;20203;-77
2021/01/20 06:46:12;;;;;;;6.03;5.60;;;7.90;99.90;;;;;;4953739;29;20204;-77
2021/01/20 06:48:56;;;;;;;9.65;5.88;;;7.90;99.90;;;;;;4954666;28;20862;-78
2021/01/20 06:51:24;;;;;;;6.10;5.70;;;7.90;99.90;;;;;;4954000;28;20171;-77
2021/01/20 06:54:02;;;;;;;6.75;6.15;;;7.90;99.90;;;;;;4937146;28;20708;-77
2021/01/20 06:56:31;;;;;;;8.38;5.78;;;7.90;99.90;;;;;;4937364;29;20183;-78
2021/01/20 06:59:24;;;;;;;7.35;6.65;;;7.90;99.90;;;;;;4934545;28;20725;-78
2021/01/20 07:02:03;;;;;;;6.10;5.60;;;7.90;99.90;;;;;;4934816;28;20208;-77
2021/01/20 07:04:38;;;;;;;5.80;5.33;;;7.90;99.90;;;;;;4937035;29;20184;-78
2021/01/20 07:07:09;;;;;;;6.47;5.97;;;8.00;99.90;;;;;;4953936;29;20474;-77
2021/01/20 07:09:50;;;;;;;5.88;4.75;;;8.00;99.90;;;;;;4954358;28;20204;-78
2021/01/20 07:12:17;;;;;;;5.93;5.22;;;7.90;99.90;;;;;;4953992;28;20262;-77
2021/01/20 07:14:43;;;;;;;6.10;5.50;;;7.90;99.90;;;;;;4952813;29;20227;-75
2021/01/20 07:17:13;;;;;;;5.10;4.70;;;7.90;99.90;;;;;;4940330;28;20176;-78
2021/01/20 07:19:43;;;;;;;8.65;5.70;;;7.90;99.90;;;;;;4933446;28;20208;-77
2021/01/20 07:22:10;;;;;;;5.95;5.45;;;7.90;99.90;;;;;;4964447;28;20184;-78
2021/01/20 07:24:37;;;;;;;6.25;5.75;;;7.90;99.90;;;;;;4960736;28;20203;-78
2021/01/20 07:27:06;;;;;;;6.40;5.90;;;7.90;99.90;;;;;;4932023;28;20191;-77
2021/01/20 07:29:32;;;;;;;5.97;5.47;;;7.90;99.90;;;;;;4962687;28;20785;-77
2021/01/20 07:32:00;;;;;;;5.78;5.30;;;8.00;99.90;;;;;;4962267;28;20180;-76
2021/01/20 07:34:46;;;;;;;6.30;5.80;;;8.00;99.90;;;;;;4969104;28;20231;-77
2021/01/20 07:37:18;;;;;;;6.10;5.60;;;7.90;99.90;;;;;;4963898;28;20238;-77
2021/01/20 07:39:45;;;;;;;6.78;6.13;;;7.90;99.90;;;;;;4946191;28;20255;-77
2021/01/20 07:42:13;;;;;;;6.70;6.20;;;7.90;99.90;;;;;;4958265;28;20282;-77
2021/01/20 07:44:51;;;;;;;6.00;5.40;;;8.00;99.90;;;;;;4948392;28;20191;-77
2021/01/20 07:47:20;;;;;;;6.45;5.85;;;8.00;99.90;;;;;;4956193;28;20285;-77
2021/01/20 07:49:56;;;;;;;5.78;5.38;;;7.90;99.90;;;;;;4943281;28;20212;-77
2021/01/20 07:52:22;;;;;;;5.80;5.40;;;7.90;99.90;;;;;;4962005;28;20206;-77
2021/01/20 07:54:48;;;;;;;5.97;5.47;;;8.00;99.90;;;;;;4969542;28;20474;-77
2021/01/20 07:57:19;;;;;;;5.97;5.57;;;8.10;99.90;;;;;;4963363;28;20191;-77
2021/01/20 08:00:04;;;;;;;7.63;6.05;;;8.10;99.90;;;;;;4977581;28;20253;-77
2021/01/20 08:02:48;;;;;;;6.00;5.50;;;8.10;99.90;;;;;;4959286;28;20669;-77
2021/01/20 08:05:17;;;;;;;6.73;5.33;;;8.10;99.90;;;;;;4942988;29;20187;-77
2021/01/20 08:07:44;;;;;;;5.60;5.10;;;8.00;99.90;;;;;;4955642;28;20486;-77
2021/01/20 08:10:18;;;;;;;5.90;5.43;;;8.10;99.90;;;;;;4965941;28;20676;-77
2021/01/20 08:12:52;;;;;;;6.22;5.63;;;8.10;99.90;;;;;;4961964;28;20202;-77
2021/01/20 08:15:20;;;;;;;5.78;5.38;;;8.10;99.90;;;;;;4968395;28;20195;-76
2021/01/20 08:17:46;;;;;;;6.28;5.70;;;8.10;99.90;;;;;;4957349;28;20206;-77
2021/01/20 08:20:13;;;;;;;5.78;5.18;;;8.10;99.90;;;;;;4967993;28;20547;-77
2021/01/20 08:22:45;;;;;;;5.22;4.82;;;8.10;99.90;;;;;;4953909;28;20562;-77
2021/01/20 08:25:17;;;;;;;5.50;4.40;;;8.10;99.90;;;;;;4954634;28;20203;-77
2021/01/20 08:27:45;;;;;;;5.38;4.85;;;8.10;99.90;;;;;;4957896;28;20294;-76
2021/01/20 08:30:17;;;;;;;5.18;4.85;;;8.20;99.90;;;;;;4936059;29;20243;-76
2021/01/20 08:32:53;;;;;;;5.30;4.90;;;8.20;99.90;;;;;;4956862;28;20565;-77
2021/01/20 08:35:36;;;;;;;6.33;5.73;;;8.20;99.90;;;;;;4953766;28;20227;-76
2021/01/20 08:38:03;;;;;;;5.63;5.23;;;8.20;99.90;;;;;;4936252;28;20471;-77
2021/01/20 08:40:30;;;;;;;6.37;5.87;;;8.20;99.90;;;;;;4946120;28;20428;-77
2021/01/20 08:42:59;;;;;;;9.13;5.65;;;8.20;99.90;;;;;;4983705;28;20493;-76
2021/01/20 08:45:33;;;;;;;6.63;5.22;;;8.20;99.90;;;;;;4955615;28;20239;-76
2021/01/20 08:48:08;;;;;;;5.60;5.10;;;8.30;99.90;;;;;;4958931;28;20215;-77
2021/01/20 08:50:40;;;;;;;5.87;5.27;;;8.30;99.90;;;;;;4949056;28;20282;-76
2021/01/20 08:53:14;;;;;;;6.35;5.65;;;8.30;99.90;;;;;;4966643;28;20518;-77
2021/01/20 08:55:51;;;;;;;5.90;5.30;;;8.40;99.90;;;;;;4963826;28;20210;-76
2021/01/20 08:58:27;;;;;;;6.80;6.07;;;8.40;99.90;;;;;;4941983;28;20673;-77
2021/01/20 09:00:56;;;;;;;6.35;5.85;;;8.40;99.90;;;;;;4944986;28;21512;-77
2021/01/20 09:03:28;;;;;;;6.50;6.00;;;8.50;99.90;;;;;;4953945;28;20199;-76
2021/01/20 09:05:56;;;;;;;6.13;5.63;;;8.40;99.90;;;;;;4957586;28;20686;-77
2021/01/20 09:08:24;;;;;;;6.57;6.07;;;8.40;99.90;;;;;;4948008;28;20463;-76
2021/01/20 09:10:51;;;;;;;8.27;5.75;;;8.40;99.90;;;;;;4947488;28;20463;-77
2021/01/20 09:13:17;;;;;;;6.73;6.17;;;8.50;99.90;;;;;;4950896;28;20209;-77
2021/01/20 09:15:45;;;;;;;6.43;5.90;;;8.50;99.90;;;;;;4958001;28;20981;-76
2021/01/20 09:18:11;;;;;;;7.00;5.70;;;8.50;99.90;;;;;;4947743;28;20678;-76
2021/01/20 09:20:38;;;;;;;6.03;5.55;;;8.50;99.90;;;;;;4952450;28;20197;-77
2021/01/20 09:23:07;;;;;;;7.18;5.88;;;8.50;99.90;;;;;;4945793;28;20203;-75
2021/01/20 09:25:34;;;;;;;6.13;5.63;;;8.60;99.90;;;;;;4953524;28;20218;-77
2021/01/20 09:28:00;;;;;;;6.60;6.00;;;8.70;99.90;;;;;;4940639;28;20819;-75
2021/01/20 09:30:27;;;;;;;6.90;6.30;;;8.70;99.90;;;;;;4971655;28;20199;-75
2021/01/20 09:32:53;;;;;;;7.20;6.70;;;8.70;99.90;;;;;;4962226;28;20188;-75
2021/01/20 09:35:20;;;;;;;6.47;5.82;;;8.60;99.90;;;;;;4963216;28;20483;-74
2021/01/20 09:37:50;;;;;;;7.70;6.57;;;8.60;99.90;;;;;;4956575;28;20622;-75
2021/01/20 09:40:18;;;;;;;6.53;5.93;;;8.50;99.90;;;;;;4937234;28;20183;-76
2021/01/20 09:42:47;;;;;;;7.00;6.40;;;8.50;99.90;;;;;;4957187;28;20279;-75
2021/01/20 09:45:15;;;;;;;6.30;5.78;;;8.60;99.90;;;;;;4966850;28;20227;-75
2021/01/20 09:47:49;;;;;;;6.68;6.18;;;8.60;99.90;;;;;;4948621;28;20243;-75
2021/01/20 09:50:16;;;;;;;8.02;7.40;;;8.60;99.90;;;;;;4953255;28;20214;-75
2021/01/20 09:52:44;;;;;;;6.27;5.67;;;8.60;99.90;;;;;;4947971;28;20192;-74
2021/01/20 09:55:11;;;;;;;6.40;5.90;;;8.70;99.90;;;;;;4946567;28;20487;-75
2021/01/20 09:57:38;;;;;;;7.40;6.78;;;8.70;99.90;;;;;;4967710;28;20442;-74
2021/01/20 10:00:06;;;;;;;7.00;6.45;;;8.70;99.90;;;;;;4940782;28;20192;-74
2021/01/20 10:02:40;;;;;;;7.50;6.93;;;8.80;99.90;;;;;;4944646;28;20606;-75
2021/01/20 10:05:07;;;;;;;7.20;6.10;;;8.70;99.90;;;;;;4959303;28;20431;-75
2021/01/20 10:07:33;;;;;;;7.35;6.85;;;8.80;99.90;;;;;;4945068;28;20199;-75
2021/01/20 10:10:00;;;;;;;8.03;7.23;;;8.80;99.90;;;;;;4933037;29;20522;-75
2021/01/20 10:12:27;;;;;;;8.30;7.50;;;8.70;99.90;;;;;;4948219;28;21186;-76
2021/01/20 10:14:53;;;;;;;7.17;6.67;;;8.80;99.90;;;;;;4945899;28;20489;-75
2021/01/20 10:17:20;;;;;;;7.20;6.60;;;8.80;99.90;;;;;;4957905;28;20481;-75
2021/01/20 10:19:46;;;;;;;9.27;8.27;;;8.80;99.90;;;;;;4937323;28;20290;-75
2021/01/20 10:22:12;;;;;;;8.00;6.97;;;8.80;99.90;;;;;;4952292;28;20860;-75
2021/01/20 10:24:38;;;;;;;7.30;6.78;;;8.90;99.90;;;;;;4965784;28;21036;-75
2021/01/20 10:27:06;;;;;;;8.53;7.73;;;8.90;99.90;;;;;;4946268;28;20653;-75
2021/01/20 10:29:33;;;;;;;7.50;6.80;;;9.00;99.90;;;;;;4962425;28;20454;-75
2021/01/20 10:32:01;;;;;;;7.10;6.55;;;9.00;99.90;;;;;;4955701;28;20666;-75
2021/01/20 10:34:29;;;;;;;8.13;7.40;;;9.00;99.70;;;;;;4959139;28;20215;-75
2021/01/20 10:36:56;;;;;;;8.33;7.70;;;8.90;99.60;;;;;;4965171;28;20964;-75
2021/01/20 10:39:24;;;;;;;7.50;7.00;;;8.90;99.40;;;;;;4939038;29;20454;-74
2021/01/20 10:41:52;;;;;;;7.82;7.05;;;8.90;99.90;;;;;;4951793;28;20423;-74
2021/01/20 10:44:18;;;;;;;7.93;7.43;;;8.80;99.90;;;;;;4957074;28;20271;-75
2021/01/20 10:46:45;;;;;;;7.20;6.60;;;8.80;99.90;;;;;;4956432;28;20800;-75
2021/01/20 10:49:13;;;;;;;8.00;7.30;;;8.90;99.70;;;;;;4950163;28;20294;-74
2021/01/20 10:51:40;;;;;;;6.70;6.20;;;9.00;99.70;;;;;;4929818;29;20191;-75
2021/01/20 10:54:06;;;;;;;6.23;5.83;;;9.00;99.40;;;;;;4949846;28;20463;-75
2021/01/20 10:56:32;;;;;;;6.97;6.47;;;9.10;98.80;;;;;;4944250;28;20443;-75
2021/01/20 10:58:59;;;;;;;7.10;6.57;;;9.10;98.60;;;;;;4964762;28;20525;-73
2021/01/20 11:01:26;;;;;;;7.13;6.53;;;9.10;98.70;;;;;;4961577;28;20934;-74
2021/01/20 11:03:57;;;;;;;8.47;7.87;;;9.00;97.90;;;;;;4958430;28;20478;-73
2021/01/20 11:06:23;;;;;;;8.77;7.90;;;9.00;98.30;;;;;;4962686;28;20801;-73
2021/01/20 11:08:51;;;;;;;9.13;8.53;;;9.10;98.50;;;;;;4948650;28;20910;-73
2021/01/20 11:11:18;;;;;;;9.10;8.27;;;9.10;98.10;;;;;;4958530;28;20442;-74
2021/01/20 11:13:45;;;;;;;8.23;7.60;;;9.20;98.00;;;;;;4957884;28;20435;-73
2021/01/20 11:16:12;;;;;;;7.97;7.43;;;9.30;97.70;;;;;;4966501;28;20863;-74
2021/01/20 11:18:38;;;;;;;7.60;6.90;;;9.30;97.50;;;;;;4963471;28;20530;-74
2021/01/20 11:21:05;;;;;;;7.73;7.13;;;9.30;97.80;;;;;;4961142;28;20915;-76
2021/01/20 11:23:37;;;;;;;8.70;8.00;;;9.30;98.00;;;;;;4939481;28;20849;-74
2021/01/20 11:26:07;;;;;;;18.93;8.50;;;9.30;97.50;;;;;;4937398;29;20408;-72
2021/01/20 11:28:34;;;;;;;8.90;8.20;;;9.40;98.00;;;;;;4937183;29;20446;-72
2021/01/20 11:31:00;;;;;;;8.30;7.60;;;9.50;97.50;;;;;;4921892;29;20441;-73
2021/01/20 11:33:26;;;;;;;7.33;6.83;;;9.50;96.70;;;;;;4921653;29;20503;-72
2021/01/20 11:35:52;;;;;;;8.03;7.30;;;9.50;97.70;;;;;;4921449;29;20951;-72
2021/01/20 11:38:19;;;;;;;8.00;7.30;;;9.50;97.40;;;;;;4937237;29;20440;-71
2021/01/20 11:40:47;;;;;;;7.83;7.33;;;9.50;97.00;;;;;;4937911;29;20800;-72
2021/01/20 11:43:13;;;;;;;8.03;7.43;;;9.60;97.60;;;;;;4921399;29;20898;-71
2021/01/20 11:45:39;;;;;;;7.60;7.00;;;9.60;97.10;;;;;;4936588;29;20423;-74
2021/01/20 11:48:07;;;;;;;8.30;7.70;;;9.60;97.20;;;;;;4954080;28;20944;-73
2021/01/20 11:50:34;;;;;;;7.93;7.23;;;9.70;96.30;;;;;;4932551;28;20558;-76
2021/01/20 11:53:01;;;;;;;8.77;7.93;;;9.60;96.90;;;;;;4939861;28;20442;-74
2021/01/20 11:55:27;;;;;;;8.87;8.10;;;9.60;96.90;;;;;;4965735;28;21011;-74
2021/01/20 11:57:53;;;;;;;8.27;7.50;;;9.50;96.70;;;;;;4956054;28;20466;-74
2021/01/20 12:00:22;;;;;;;9.77;6.90;;;9.60;96.50;;;;;;4966099;28;20517;-74
2021/01/20 12:02:49;;;;;;;7.83;6.97;;;9.70;96.60;;;;;;4970601;28;20931;-74
2021/01/20 12:05:18;;;;;;;8.30;7.60;;;9.60;96.10;;;;;;4956623;28;20433;-74
2021/01/20 12:07:45;;;;;;;8.00;7.30;;;9.60;96.20;;;;;;4966114;28;20898;-74
2021/01/20 12:10:16;;;;;;;9.18;8.43;;;9.60;96.70;;;;;;4959881;28;20493;-74
2021/01/20 12:12:43;;;;;;;7.60;7.03;;;9.70;96.30;;;;;;4955192;28;20266;-74
2021/01/20 12:15:10;;;;;;;8.40;7.90;;;9.70;96.20;;;;;;4965224;28;20565;-73
2021/01/20 12:17:40;;;;;;;8.87;8.20;;;9.80;96.60;;;;;;4958237;28;20428;-74
2021/01/20 12:20:08;;;;;;;8.80;8.10;;;9.80;95.80;;;;;;4959484;28;20926;-75
2021/01/20 12:22:36;;;;;;;7.47;6.87;;;9.80;95.40;;;;;;4956510;28;20463;-74
2021/01/20 12:25:03;;;;;;;8.30;7.67;;;9.90;95.40;;;;;;4955734;28;20443;-74
2021/01/20 12:27:32;;;;;;;8.80;8.03;;;9.80;95.00;;;;;;4953054;28;20430;-74
2021/01/20 12:29:59;;;;;;;8.03;7.40;;;9.80;95.70;;;;;;4949370;28;20438;-74
2021/01/20 12:32:26;;;;;;;6.83;6.33;;;9.70;95.30;;;;;;4954583;28;20474;-74
2021/01/20 12:34:52;;;;;;;7.80;7.20;;;9.70;95.40;;;;;;4961844;28;20558;-74
2021/01/20 12:37:18;;;;;;;7.73;7.03;;;9.70;96.00;;;;;;4961192;28;20479;-74
2021/01/20 12:39:45;;;;;;;7.30;6.70;;;9.70;95.30;;;;;;4951010;28;20563;-74
2021/01/20 12:42:11;;;;;;;9.18;7.20;;;9.70;94.80;;;;;;4967880;28;20870;-74
2021/01/20 12:44:40;;;;;;;8.17;7.37;;;9.80;95.20;;;;;;4945370;28;20184;-74
2021/01/20 12:47:07;;;;;;;7.87;7.27;;;9.80;95.20;;;;;;4964358;28;20434;-74
2021/01/20 12:49:33;;;;;;;7.83;7.23;;;9.90;95.10;;;;;;4934872;29;20455;-74
2021/01/20 12:51:59;;;;;;;7.33;6.63;;;9.90;94.70;;;;;;4948130;28;20440;-74
2021/01/20 12:54:25;;;;;;;9.43;8.23;;;9.90;94.70;;;;;;4939927;29;20467;-74
2021/01/20 12:56:53;;;;;;;9.90;9.13;;;9.80;95.40;;;;;;4960573;28;20428;-75
2021/01/20 12:59:36;;;;;;;8.37;7.70;;;9.80;95.00;;;;;;4950225;28;20550;-74
2021/01/20 13:02:06;;;;;;;9.70;8.70;;;9.70;95.10;;;;;;4957149;28;21100;-74
2021/01/20 13:04:32;;;;;;;10.50;8.10;;;9.70;94.90;;;;;;4951764;28;20864;-74
2021/01/20 13:06:58;;;;;;;7.30;6.80;;;9.70;95.30;;;;;;4958825;28;20535;-72
2021/01/20 13:09:24;;;;;;;7.87;7.10;;;9.70;95.50;;;;;;4950773;28;20530;-72
2021/01/20 13:11:50;;;;;;;9.53;7.80;;;9.70;95.20;;;;;;4947484;28;20498;-73